ACA415 CYUL-CYYZ
Flight info
| Callsign | ACA415 |
|---|---|
| Flight time | 0h 56m |
| Altitude | 36000 |
| Route | BOBKI DCT MELTI DCT TORNI RAGID6 |
| Aircraft | A320/M-SDE3FGHIRWY/LB1 |
Departure
| Time | 2026-05-04 21:32 |
|---|---|
| Airport | Montreal / Pierre Elliott Trudeau International Airport (CYUL) |
Arrival
| Time | 2026-05-04 22:28 |
|---|---|
| Airport | Toronto Pearson International Airport (CYYZ) |
| Time | Latitude | Longitude | Altitude | Speed | Heading |
|---|---|---|---|---|---|
| 2026-05-04 21:09 | 45.45921 | -73.75136 | 105 ft | 0 kts | 178° |
| 2026-05-04 21:10 | 45.45924 | -73.75136 | 105 ft | 0 kts | 178° |
| 2026-05-04 21:10 | 45.45923 | -73.75136 | 105 ft | 8 kts | 178° |
| 2026-05-04 21:10 | 45.45921 | -73.75136 | 105 ft | 0 kts | 178° |
| 2026-05-04 21:23 | 45.45942 | -73.75137 | 103 ft | 4 kts | 176° |
| 2026-05-04 21:24 | 45.45969 | -73.75139 | 104 ft | 3 kts | 181° |
| 2026-05-04 21:24 | 45.45991 | -73.75136 | 104 ft | 4 kts | 206° |
| 2026-05-04 21:24 | 45.46008 | -73.75112 | 105 ft | 4 kts | 253° |
| 2026-05-04 21:24 | 45.46011 | -73.75082 | 105 ft | 0 kts | 269° |
| 2026-05-04 21:26 | 45.46011 | -73.75097 | 105 ft | 5 kts | 268° |
| 2026-05-04 21:26 | 45.46006 | -73.75156 | 105 ft | 7 kts | 261° |
| 2026-05-04 21:27 | 45.46022 | -73.75224 | 104 ft | 8 kts | 335° |
| 2026-05-04 21:27 | 45.46052 | -73.75153 | 105 ft | 11 kts | 71° |
| 2026-05-04 21:27 | 45.46093 | -73.75062 | 103 ft | 11 kts | 45° |
| 2026-05-04 21:27 | 45.46149 | -73.74971 | 105 ft | 18 kts | 69° |
| 2026-05-04 21:28 | 45.46161 | -73.74750 | 104 ft | 25 kts | 81° |
| 2026-05-04 21:28 | 45.46126 | -73.74511 | 104 ft | 22 kts | 115° |
| 2026-05-04 21:28 | 45.46133 | -73.74289 | 103 ft | 25 kts | 90° |
| 2026-05-04 21:28 | 45.46151 | -73.74030 | 105 ft | 26 kts | 71° |
| 2026-05-04 21:29 | 45.46291 | -73.73861 | 105 ft | 28 kts | 44° |
| 2026-05-04 21:29 | 45.46442 | -73.73663 | 109 ft | 31 kts | 42° |
| 2026-05-04 21:29 | 45.46604 | -73.73450 | 111 ft | 33 kts | 43° |
| 2026-05-04 21:29 | 45.46781 | -73.73216 | 112 ft | 36 kts | 42° |
| 2026-05-04 21:30 | 45.46971 | -73.72970 | 116 ft | 38 kts | 42° |
| 2026-05-04 21:30 | 45.47171 | -73.72707 | 115 ft | 40 kts | 43° |
| 2026-05-04 21:30 | 45.47382 | -73.72426 | 117 ft | 43 kts | 43° |
| 2026-05-04 21:30 | 45.47602 | -73.72131 | 120 ft | 44 kts | 43° |
| 2026-05-04 21:31 | 45.47822 | -73.71740 | 121 ft | 18 kts | 107° |
| 2026-05-04 21:31 | 45.47738 | -73.71600 | 122 ft | 20 kts | 126° |
| 2026-05-04 21:31 | 45.47696 | -73.71616 | 120 ft | 7 kts | 232° |
| 2026-05-04 21:32 | 45.47611 | -73.71724 | 124 ft | 43 kts | 224° |
| 2026-05-04 21:32 | 45.47209 | -73.72250 | 116 ft | 111 kts | 223° |
| 2026-05-04 21:32 | 45.46511 | -73.73163 | 203 ft | 151 kts | 222° |
| 2026-05-04 21:32 | 45.45776 | -73.74161 | 931 ft | 142 kts | 224° |
| 2026-05-04 21:33 | 45.45077 | -73.75130 | 1640 ft | 140 kts | 224° |
| 2026-05-04 21:33 | 45.44386 | -73.76122 | 2285 ft | 142 kts | 236° |
| 2026-05-04 21:33 | 45.44094 | -73.77433 | 2822 ft | 145 kts | 266° |
| 2026-05-04 21:33 | 45.44059 | -73.78874 | 3386 ft | 148 kts | 264° |
| 2026-05-04 21:34 | 45.44002 | -73.80434 | 3717 ft | 169 kts | 264° |
| 2026-05-04 21:34 | 45.43933 | -73.82219 | 4005 ft | 192 kts | 264° |
| 2026-05-04 21:34 | 45.43857 | -73.84244 | 4353 ft | 217 kts | 265° |
| 2026-05-04 21:34 | 45.43774 | -73.86505 | 4785 ft | 240 kts | 265° |
| 2026-05-04 21:35 | 45.43689 | -73.88918 | 5610 ft | 246 kts | 266° |
| 2026-05-04 21:35 | 45.43604 | -73.91356 | 6585 ft | 247 kts | 266° |
| 2026-05-04 21:35 | 45.43521 | -73.93793 | 7544 ft | 247 kts | 267° |
| 2026-05-04 21:35 | 45.43436 | -73.96215 | 8461 ft | 249 kts | 268° |
| 2026-05-04 21:36 | 45.43349 | -73.98688 | 9375 ft | 251 kts | 268° |
| 2026-05-04 21:36 | 45.43261 | -74.01180 | 10201 ft | 255 kts | 268° |
| 2026-05-04 21:36 | 45.43166 | -74.03806 | 10524 ft | 277 kts | 268° |
| 2026-05-04 21:36 | 45.43062 | -74.06635 | 10982 ft | 293 kts | 267° |
| 2026-05-04 21:37 | 45.42953 | -74.09563 | 11767 ft | 298 kts | 267° |
| 2026-05-04 21:37 | 45.42842 | -74.12534 | 12560 ft | 303 kts | 267° |
| 2026-05-04 21:37 | 45.42729 | -74.15548 | 13332 ft | 307 kts | 267° |
| 2026-05-04 21:37 | 45.42614 | -74.18592 | 13998 ft | 310 kts | 267° |
| 2026-05-04 21:38 | 45.42498 | -74.21634 | 14675 ft | 313 kts | 267° |
| 2026-05-04 21:38 | 45.42380 | -74.24746 | 15376 ft | 316 kts | 268° |
| 2026-05-04 21:38 | 45.42261 | -74.27889 | 16043 ft | 319 kts | 268° |
| 2026-05-04 21:38 | 45.42140 | -74.31063 | 16706 ft | 323 kts | 267° |
| 2026-05-04 21:39 | 45.42016 | -74.34268 | 17365 ft | 326 kts | 267° |
| 2026-05-04 21:39 | 45.41889 | -74.37504 | 18022 ft | 329 kts | 267° |
| 2026-05-04 21:39 | 45.41758 | -74.40770 | 18583 ft | 332 kts | 268° |
| 2026-05-04 21:39 | 45.41499 | -74.44008 | 19139 ft | 336 kts | 259° |
| 2026-05-04 21:40 | 45.40961 | -74.47253 | 19701 ft | 339 kts | 258° |
| 2026-05-04 21:40 | 45.40409 | -74.50531 | 20271 ft | 342 kts | 258° |
| 2026-05-04 21:40 | 45.39852 | -74.53837 | 20834 ft | 345 kts | 259° |
| 2026-05-04 21:40 | 45.39293 | -74.57173 | 21393 ft | 348 kts | 259° |
| 2026-05-04 21:41 | 45.38732 | -74.60542 | 21958 ft | 351 kts | 259° |
| 2026-05-04 21:41 | 45.38166 | -74.63937 | 22514 ft | 354 kts | 259° |
| 2026-05-04 21:41 | 45.37593 | -74.67352 | 23067 ft | 357 kts | 259° |
| 2026-05-04 21:41 | 45.37018 | -74.70765 | 23532 ft | 360 kts | 259° |
| 2026-05-04 21:42 | 45.36432 | -74.74231 | 23998 ft | 362 kts | 259° |
| 2026-05-04 21:42 | 45.35841 | -74.77716 | 24487 ft | 363 kts | 259° |
| 2026-05-04 21:42 | 45.35246 | -74.81214 | 24943 ft | 365 kts | 259° |
| 2026-05-04 21:42 | 45.34647 | -74.84725 | 25367 ft | 366 kts | 260° |
| 2026-05-04 21:43 | 45.34045 | -74.88254 | 25800 ft | 368 kts | 260° |
| 2026-05-04 21:43 | 45.33439 | -74.91800 | 26225 ft | 370 kts | 260° |
| 2026-05-04 21:43 | 45.32838 | -74.95317 | 26615 ft | 372 kts | 260° |
| 2026-05-04 21:43 | 45.32213 | -74.98946 | 27015 ft | 374 kts | 260° |
| 2026-05-04 21:44 | 45.31600 | -75.02489 | 27400 ft | 376 kts | 260° |
| 2026-05-04 21:44 | 45.30972 | -75.06106 | 27786 ft | 378 kts | 261° |
| 2026-05-04 21:44 | 45.30340 | -75.09743 | 28164 ft | 380 kts | 261° |
| 2026-05-04 21:44 | 45.29705 | -75.13399 | 28533 ft | 382 kts | 261° |
| 2026-05-04 21:45 | 45.29067 | -75.17073 | 28890 ft | 384 kts | 261° |
| 2026-05-04 21:45 | 45.28424 | -75.20761 | 29265 ft | 385 kts | 261° |
| 2026-05-04 21:45 | 45.27786 | -75.24409 | 29631 ft | 387 kts | 261° |
| 2026-05-04 21:45 | 45.27138 | -75.28122 | 29931 ft | 388 kts | 261° |
| 2026-05-04 21:46 | 45.26486 | -75.31848 | 30214 ft | 390 kts | 261° |
| 2026-05-04 21:46 | 45.25829 | -75.35585 | 30488 ft | 391 kts | 261° |
| 2026-05-04 21:46 | 45.25169 | -75.39336 | 30759 ft | 393 kts | 261° |
| 2026-05-04 21:46 | 45.24505 | -75.43103 | 31019 ft | 394 kts | 261° |
| 2026-05-04 21:47 | 45.23847 | -75.46880 | 31319 ft | 394 kts | 261° |
| 2026-05-04 21:47 | 45.23191 | -75.50652 | 31645 ft | 393 kts | 261° |
| 2026-05-04 21:47 | 45.22519 | -75.54412 | 31986 ft | 393 kts | 261° |
| 2026-05-04 21:47 | 45.21850 | -75.58112 | 32338 ft | 392 kts | 261° |
| 2026-05-04 21:48 | 45.21172 | -75.61850 | 32691 ft | 391 kts | 261° |
| 2026-05-04 21:48 | 45.20499 | -75.65570 | 33046 ft | 390 kts | 261° |
| 2026-05-04 21:48 | 45.19829 | -75.69292 | 33404 ft | 389 kts | 261° |
| 2026-05-04 21:48 | 45.19162 | -75.73002 | 33748 ft | 388 kts | 261° |
| 2026-05-04 21:49 | 45.18498 | -75.76705 | 34033 ft | 387 kts | 261° |
| 2026-05-04 21:49 | 45.17834 | -75.80407 | 34288 ft | 388 kts | 261° |
| 2026-05-04 21:49 | 45.17170 | -75.84113 | 34527 ft | 388 kts | 261° |
| 2026-05-04 21:49 | 45.16512 | -75.87776 | 34752 ft | 389 kts | 261° |
| 2026-05-04 21:50 | 45.15841 | -75.91490 | 34975 ft | 389 kts | 261° |
| 2026-05-04 21:50 | 45.15167 | -75.95198 | 35201 ft | 390 kts | 260° |
| 2026-05-04 21:50 | 45.14487 | -75.98917 | 35423 ft | 390 kts | 260° |
| 2026-05-04 21:50 | 45.13805 | -76.02640 | 35615 ft | 391 kts | 260° |
| 2026-05-04 21:51 | 45.13121 | -76.06357 | 35664 ft | 388 kts | 260° |
| 2026-05-04 21:51 | 45.11764 | -76.13714 | 35668 ft | 385 kts | 260° |
| 2026-05-04 21:52 | 45.10414 | -76.21000 | 35672 ft | 386 kts | 258° |
| 2026-05-04 21:52 | 45.08153 | -76.27974 | 35678 ft | 394 kts | 246° |
| 2026-05-04 21:53 | 45.05480 | -76.34738 | 35679 ft | 394 kts | 247° |
| 2026-05-04 21:53 | 45.02807 | -76.41505 | 35675 ft | 394 kts | 246° |
| 2026-05-04 21:54 | 45.00144 | -76.48224 | 35674 ft | 394 kts | 246° |
| 2026-05-04 21:54 | 44.97460 | -76.54980 | 35682 ft | 394 kts | 246° |
| 2026-05-04 21:55 | 44.94784 | -76.61713 | 35687 ft | 393 kts | 246° |
| 2026-05-04 21:55 | 44.92107 | -76.68439 | 35693 ft | 393 kts | 246° |
| 2026-05-04 21:56 | 44.89442 | -76.75106 | 35699 ft | 393 kts | 246° |
| 2026-05-04 21:56 | 44.86752 | -76.81806 | 35696 ft | 392 kts | 246° |
| 2026-05-04 21:57 | 44.84064 | -76.88500 | 35703 ft | 392 kts | 246° |
| 2026-05-04 21:57 | 44.81375 | -76.95180 | 35684 ft | 392 kts | 246° |
| 2026-05-04 21:58 | 44.78678 | -77.01865 | 35691 ft | 392 kts | 246° |
| 2026-05-04 21:58 | 44.76000 | -77.08497 | 35698 ft | 392 kts | 246° |
| 2026-05-04 21:59 | 44.73303 | -77.15161 | 35706 ft | 392 kts | 246° |
| 2026-05-04 21:59 | 44.70605 | -77.21818 | 35699 ft | 392 kts | 246° |
| 2026-05-04 21:59 | 44.69254 | -77.25145 | 35591 ft | 393 kts | 246° |
| 2026-05-04 22:00 | 44.67902 | -77.28466 | 35320 ft | 390 kts | 246° |
| 2026-05-04 22:00 | 44.66563 | -77.31745 | 34903 ft | 384 kts | 246° |
| 2026-05-04 22:00 | 44.65259 | -77.34937 | 34464 ft | 380 kts | 246° |
| 2026-05-04 22:00 | 44.63954 | -77.38129 | 34002 ft | 376 kts | 246° |
| 2026-05-04 22:01 | 44.62653 | -77.41303 | 33535 ft | 373 kts | 247° |
| 2026-05-04 22:01 | 44.61370 | -77.44430 | 33060 ft | 368 kts | 247° |
| 2026-05-04 22:01 | 44.60103 | -77.47524 | 32617 ft | 363 kts | 246° |
| 2026-05-04 22:01 | 44.58850 | -77.50577 | 32176 ft | 359 kts | 246° |
| 2026-05-04 22:02 | 44.57609 | -77.53589 | 31758 ft | 355 kts | 246° |
| 2026-05-04 22:02 | 44.56383 | -77.56566 | 31331 ft | 351 kts | 246° |
| 2026-05-04 22:02 | 44.55186 | -77.59473 | 30926 ft | 347 kts | 246° |
| 2026-05-04 22:02 | 44.53986 | -77.62389 | 30524 ft | 343 kts | 246° |
| 2026-05-04 22:03 | 44.52798 | -77.65276 | 30123 ft | 340 kts | 246° |
| 2026-05-04 22:03 | 44.51618 | -77.68133 | 29678 ft | 338 kts | 246° |
| 2026-05-04 22:03 | 44.50444 | -77.70975 | 29213 ft | 335 kts | 246° |
| 2026-05-04 22:03 | 44.49281 | -77.73787 | 28792 ft | 332 kts | 245° |
| 2026-05-04 22:04 | 44.48130 | -77.76563 | 28387 ft | 328 kts | 246° |
| 2026-05-04 22:04 | 44.46992 | -77.79306 | 27977 ft | 324 kts | 246° |
| 2026-05-04 22:04 | 44.45868 | -77.82019 | 27576 ft | 320 kts | 246° |
| 2026-05-04 22:04 | 44.44770 | -77.84662 | 27184 ft | 316 kts | 246° |
| 2026-05-04 22:05 | 44.43670 | -77.87309 | 26792 ft | 313 kts | 246° |
| 2026-05-04 22:05 | 44.42579 | -77.89926 | 26386 ft | 310 kts | 246° |
| 2026-05-04 22:05 | 44.41497 | -77.92517 | 25996 ft | 307 kts | 245° |
| 2026-05-04 22:05 | 44.40424 | -77.95086 | 25564 ft | 305 kts | 245° |
| 2026-05-04 22:06 | 44.39360 | -77.97632 | 25151 ft | 303 kts | 245° |
| 2026-05-04 22:06 | 44.38302 | -78.00169 | 24732 ft | 301 kts | 245° |
| 2026-05-04 22:06 | 44.37248 | -78.02695 | 24310 ft | 300 kts | 245° |
| 2026-05-04 22:06 | 44.36194 | -78.05209 | 23876 ft | 299 kts | 245° |
| 2026-05-04 22:07 | 44.35159 | -78.07677 | 23458 ft | 297 kts | 245° |
| 2026-05-04 22:07 | 44.34113 | -78.10166 | 23000 ft | 297 kts | 245° |
| 2026-05-04 22:07 | 44.33069 | -78.12643 | 22547 ft | 295 kts | 245° |
| 2026-05-04 22:07 | 44.32031 | -78.15101 | 22132 ft | 293 kts | 245° |
| 2026-05-04 22:08 | 44.31002 | -78.17544 | 21711 ft | 291 kts | 244° |
| 2026-05-04 22:08 | 44.29980 | -78.19968 | 21301 ft | 289 kts | 244° |
| 2026-05-04 22:08 | 44.28964 | -78.22378 | 20885 ft | 287 kts | 244° |
| 2026-05-04 22:08 | 44.27957 | -78.24771 | 20494 ft | 286 kts | 244° |
| 2026-05-04 22:09 | 44.27029 | -78.26969 | 20128 ft | 285 kts | 244° |
| 2026-05-04 22:09 | 44.25956 | -78.29513 | 19706 ft | 284 kts | 243° |
| 2026-05-04 22:09 | 44.24955 | -78.31888 | 19310 ft | 284 kts | 243° |
| 2026-05-04 22:09 | 44.23953 | -78.34253 | 18927 ft | 283 kts | 243° |
| 2026-05-04 22:10 | 44.22955 | -78.36608 | 18534 ft | 282 kts | 243° |
| 2026-05-04 22:10 | 44.21956 | -78.38965 | 18137 ft | 282 kts | 242° |
| 2026-05-04 22:10 | 44.20958 | -78.41321 | 17726 ft | 282 kts | 242° |
| 2026-05-04 22:10 | 44.19967 | -78.43649 | 17536 ft | 274 kts | 242° |
| 2026-05-04 22:11 | 44.19015 | -78.45874 | 17278 ft | 269 kts | 242° |
| 2026-05-04 22:11 | 44.18064 | -78.48103 | 16926 ft | 267 kts | 242° |
| 2026-05-04 22:11 | 44.17121 | -78.50316 | 16573 ft | 266 kts | 242° |
| 2026-05-04 22:11 | 44.16181 | -78.52526 | 16212 ft | 265 kts | 242° |
| 2026-05-04 22:12 | 44.15241 | -78.54728 | 15867 ft | 264 kts | 242° |
| 2026-05-04 22:12 | 44.14303 | -78.56924 | 15520 ft | 264 kts | 242° |
| 2026-05-04 22:12 | 44.13366 | -78.59118 | 15170 ft | 263 kts | 242° |
| 2026-05-04 22:12 | 44.12430 | -78.61308 | 14821 ft | 263 kts | 241° |
| 2026-05-04 22:13 | 44.11494 | -78.63496 | 14475 ft | 263 kts | 241° |
| 2026-05-04 22:13 | 44.10570 | -78.65655 | 14125 ft | 263 kts | 241° |
| 2026-05-04 22:13 | 44.09631 | -78.67849 | 13773 ft | 264 kts | 241° |
| 2026-05-04 22:13 | 44.08689 | -78.70045 | 13415 ft | 264 kts | 240° |
| 2026-05-04 22:14 | 44.07743 | -78.72239 | 13023 ft | 264 kts | 240° |
| 2026-05-04 22:14 | 44.06800 | -78.74429 | 12660 ft | 264 kts | 240° |
| 2026-05-04 22:14 | 44.05863 | -78.76613 | 12279 ft | 262 kts | 240° |
| 2026-05-04 22:14 | 44.04930 | -78.78781 | 11926 ft | 261 kts | 240° |
| 2026-05-04 22:15 | 44.03931 | -78.80879 | 11564 ft | 261 kts | 232° |
| 2026-05-04 22:15 | 44.02717 | -78.82716 | 11197 ft | 261 kts | 230° |
| 2026-05-04 22:15 | 44.01483 | -78.84565 | 10807 ft | 261 kts | 230° |
| 2026-05-04 22:15 | 44.00251 | -78.86423 | 10435 ft | 261 kts | 230° |
| 2026-05-04 22:16 | 43.99025 | -78.88273 | 10041 ft | 261 kts | 230° |
| 2026-05-04 22:16 | 43.97792 | -78.90125 | 9646 ft | 261 kts | 230° |
| 2026-05-04 22:16 | 43.96557 | -78.91973 | 9223 ft | 261 kts | 230° |
| 2026-05-04 22:16 | 43.95329 | -78.93809 | 8850 ft | 258 kts | 230° |
| 2026-05-04 22:17 | 43.94109 | -78.95633 | 8409 ft | 258 kts | 230° |
| 2026-05-04 22:17 | 43.92897 | -78.97443 | 7987 ft | 252 kts | 230° |
| 2026-05-04 22:17 | 43.91723 | -78.99196 | 7580 ft | 251 kts | 230° |
| 2026-05-04 22:17 | 43.90540 | -79.00967 | 7258 ft | 246 kts | 230° |
| 2026-05-04 22:18 | 43.89424 | -79.02632 | 7137 ft | 226 kts | 230° |
| 2026-05-04 22:18 | 43.88380 | -79.04188 | 7041 ft | 216 kts | 230° |
| 2026-05-04 22:18 | 43.87487 | -79.05820 | 7017 ft | 211 kts | 244° |
| 2026-05-04 22:18 | 43.87055 | -79.07758 | 7013 ft | 213 kts | 262° |
| 2026-05-04 22:19 | 43.87056 | -79.09810 | 6949 ft | 212 kts | 268° |
| 2026-05-04 22:19 | 43.86799 | -79.11786 | 6598 ft | 209 kts | 251° |
| 2026-05-04 22:19 | 43.86338 | -79.13673 | 6235 ft | 210 kts | 251° |
| 2026-05-04 22:19 | 43.85873 | -79.15579 | 5902 ft | 207 kts | 251° |
| 2026-05-04 22:20 | 43.85421 | -79.17430 | 5700 ft | 199 kts | 250° |
| 2026-05-04 22:20 | 43.84980 | -79.19224 | 5398 ft | 195 kts | 250° |
| 2026-05-04 22:20 | 43.84546 | -79.20993 | 5070 ft | 193 kts | 250° |
| 2026-05-04 22:20 | 43.84114 | -79.22751 | 4747 ft | 192 kts | 250° |
| 2026-05-04 22:21 | 43.83687 | -79.24481 | 4447 ft | 189 kts | 249° |
| 2026-05-04 22:21 | 43.83266 | -79.26186 | 4239 ft | 185 kts | 249° |
| 2026-05-04 22:21 | 43.82855 | -79.27849 | 4131 ft | 180 kts | 249° |
| 2026-05-04 22:21 | 43.82454 | -79.29471 | 3890 ft | 177 kts | 249° |
| 2026-05-04 22:22 | 43.82060 | -79.31063 | 3543 ft | 177 kts | 248° |
| 2026-05-04 22:22 | 43.81666 | -79.32656 | 3358 ft | 171 kts | 248° |
| 2026-05-04 22:22 | 43.81292 | -79.34175 | 3205 ft | 163 kts | 248° |
| 2026-05-04 22:22 | 43.80927 | -79.35649 | 3074 ft | 161 kts | 248° |
| 2026-05-04 22:23 | 43.80562 | -79.37114 | 3008 ft | 161 kts | 247° |
| 2026-05-04 22:23 | 43.80190 | -79.38602 | 3013 ft | 164 kts | 247° |
| 2026-05-04 22:23 | 43.79820 | -79.40087 | 3010 ft | 164 kts | 247° |
| 2026-05-04 22:23 | 43.79447 | -79.41587 | 3016 ft | 165 kts | 247° |
| 2026-05-04 22:24 | 43.79070 | -79.43080 | 3020 ft | 165 kts | 243° |
| 2026-05-04 22:24 | 43.78419 | -79.44391 | 3018 ft | 168 kts | 225° |
| 2026-05-04 22:24 | 43.77640 | -79.45525 | 3040 ft | 158 kts | 226° |
| 2026-05-04 22:24 | 43.76896 | -79.46611 | 3001 ft | 153 kts | 225° |
| 2026-05-04 22:25 | 43.76163 | -79.47680 | 2861 ft | 153 kts | 226° |
| 2026-05-04 22:25 | 43.75436 | -79.48743 | 2687 ft | 151 kts | 226° |
| 2026-05-04 22:25 | 43.74706 | -79.49808 | 2496 ft | 152 kts | 225° |
| 2026-05-04 22:25 | 43.73987 | -79.50859 | 2306 ft | 150 kts | 225° |
| 2026-05-04 22:26 | 43.73514 | -79.51549 | 2165 ft | 149 kts | 225° |
| 2026-05-04 22:26 | 43.72623 | -79.52850 | 1922 ft | 133 kts | 225° |
| 2026-05-04 22:26 | 43.72005 | -79.53752 | 1743 ft | 126 kts | 225° |
| 2026-05-04 22:26 | 43.71403 | -79.54628 | 1590 ft | 124 kts | 224° |
| 2026-05-04 22:27 | 43.70809 | -79.55495 | 1418 ft | 125 kts | 226° |
| 2026-05-04 22:27 | 43.70213 | -79.56363 | 1245 ft | 126 kts | 223° |
| 2026-05-04 22:27 | 43.69814 | -79.56946 | 1121 ft | 124 kts | 223° |
| 2026-05-04 22:27 | 43.69220 | -79.57809 | 1000 ft | 125 kts | 227° |
| 2026-05-04 22:28 | 43.68620 | -79.58688 | 837 ft | 126 kts | 225° |
| 2026-05-04 22:28 | 43.67832 | -79.59832 | 601 ft | 123 kts | 226° |
| 2026-05-04 22:28 | 43.67290 | -79.60620 | 568 ft | 97 kts | 233° |
| 2026-05-04 22:28 | 43.67012 | -79.61019 | 565 ft | 32 kts | 231° |
| 2026-05-04 22:29 | 43.66936 | -79.61178 | 564 ft | 27 kts | 245° |
| 2026-05-04 22:29 | 43.66896 | -79.61360 | 564 ft | 15 kts | 261° |
| 2026-05-04 22:29 | 43.66881 | -79.61470 | 562 ft | 10 kts | 272° |
| 2026-05-04 22:29 | 43.66928 | -79.61475 | 564 ft | 7 kts | 44° |
| 2026-05-04 22:30 | 43.66964 | -79.61428 | 567 ft | 7 kts | 44° |
| 2026-05-04 22:30 | 43.67008 | -79.61362 | 572 ft | 11 kts | 50° |
| 2026-05-04 22:30 | 43.67087 | -79.61248 | 567 ft | 14 kts | 49° |
| 2026-05-04 22:30 | 43.67155 | -79.61144 | 567 ft | 15 kts | 38° |
| 2026-05-04 22:31 | 43.67208 | -79.61168 | 563 ft | 12 kts | 320° |
| 2026-05-04 22:31 | 43.67260 | -79.61240 | 561 ft | 9 kts | 313° |
| 2026-05-04 22:31 | 43.67319 | -79.61317 | 561 ft | 17 kts | 317° |
| 2026-05-04 22:31 | 43.67418 | -79.61451 | 562 ft | 21 kts | 317° |
| 2026-05-04 22:32 | 43.67526 | -79.61595 | 563 ft | 22 kts | 314° |
| 2026-05-04 22:32 | 43.67640 | -79.61675 | 569 ft | 16 kts | 40° |